createdAt,value
2022-09-04T00:02:26.045Z,101379.96
2022-09-04T00:05:07.915Z,101380.65
2022-09-04T00:07:58.030Z,101378.83
2022-09-04T00:10:30.529Z,101374.99
2022-09-04T00:13:28.377Z,101378.77
2022-09-04T00:16:09.758Z,101380.40
2022-09-04T00:18:58.117Z,101380.55
2022-09-04T00:21:31.524Z,101381.02
2022-09-04T00:24:05.392Z,101381.46
2022-09-04T00:26:46.297Z,101380.29
2022-09-04T00:29:59.736Z,101375.60
2022-09-04T00:32:45.530Z,101378.27
2022-09-04T00:35:34.484Z,101375.02
2022-09-04T00:38:26.833Z,101376.02
2022-09-04T00:41:10.245Z,101376.77
2022-09-04T00:44:02.075Z,101383.52
2022-09-04T00:46:49.201Z,101387.12
2022-09-04T00:49:37.579Z,101388.43
2022-09-04T00:52:21.398Z,101386.06
2022-09-04T00:55:28.784Z,101386.22
2022-09-04T00:58:16.307Z,101384.87
2022-09-04T01:00:47.648Z,101384.39
2022-09-04T01:03:24.951Z,101388.25
2022-09-04T01:06:23.128Z,101387.64
2022-09-04T01:08:56.733Z,101386.11
2022-09-04T01:11:52.962Z,101386.48
2022-09-04T01:14:43.258Z,101390.69
2022-09-04T01:17:42.251Z,101393.08
2022-09-04T01:20:38.903Z,101395.42
2022-09-04T01:23:45.573Z,101392.21
2022-09-04T01:26:34.832Z,101394.46
2022-09-04T01:29:40.701Z,101392.73
2022-09-04T01:32:13.388Z,101387.64
2022-09-04T01:35:02.742Z,101392.67
2022-09-04T01:37:59.897Z,101393.89
2022-09-04T01:40:37.709Z,101398.11
2022-09-04T01:43:21.734Z,101397.08
2022-09-04T01:46:02.560Z,101393.04
2022-09-04T01:48:42.302Z,101396.41
2022-09-04T01:51:19.564Z,101393.21
2022-09-04T01:54:01.892Z,101395.78
2022-09-04T01:56:52.877Z,101396.23
2022-09-04T01:59:33.428Z,101399.08
2022-09-04T02:02:14.165Z,101396.65
2022-09-04T02:04:48.748Z,101397.38
2022-09-04T02:07:50.295Z,101397.85
2022-09-04T02:10:39.543Z,101397.12
2022-09-04T02:13:17.862Z,101395.42
2022-09-04T02:15:59.375Z,101397.13
2022-09-04T02:18:37.302Z,101397.53
2022-09-04T02:21:14.241Z,101399.16
2022-09-04T02:24:03.397Z,101399.48
2022-09-04T02:26:53.695Z,101401.10
2022-09-04T02:29:47.370Z,101400.23
2022-09-04T02:32:26.181Z,101393.98
2022-09-04T02:35:27.652Z,101389.55
2022-09-04T02:38:33.722Z,101395.04
2022-09-04T02:41:27.161Z,101392.96
2022-09-04T02:44:17.375Z,101394.86
2022-09-04T02:47:06.020Z,101399.33
2022-09-04T02:49:51.719Z,101404.25
2022-09-04T02:52:43.249Z,101401.73
2022-09-04T02:55:31.272Z,101400.50
2022-09-04T02:58:33.043Z,101399.20
2022-09-04T03:01:26.223Z,101398.77
2022-09-04T03:04:05.840Z,101396.88
2022-09-04T03:06:51.853Z,101397.30
2022-09-04T03:09:42.956Z,101399.62
2022-09-04T03:12:37.539Z,101396.61
2022-09-04T03:15:09.506Z,101405.10
2022-09-04T03:17:58.972Z,101405.81
2022-09-04T03:20:37.224Z,101408.77
2022-09-04T03:23:30.244Z,101409.88
2022-09-04T03:26:19.003Z,101406.58
2022-09-04T03:29:17.523Z,101407.27
2022-09-04T03:32:15.481Z,101408.30
2022-09-04T03:35:16.404Z,101409.42
2022-09-04T03:38:01.989Z,101406.17
2022-09-04T03:40:51.417Z,101404.83
2022-09-04T03:43:50.241Z,101401.41
2022-09-04T03:46:37.404Z,101404.89
2022-09-04T03:49:09.426Z,101407.64
2022-09-04T03:52:03.303Z,101412.55
2022-09-04T03:54:43.462Z,101414.53
2022-09-04T03:57:20.703Z,101418.00
2022-09-04T04:00:16.113Z,101419.77
2022-09-04T04:03:00.151Z,101421.73
2022-09-04T04:05:40.804Z,101424.38
2022-09-04T04:08:45.379Z,101432.95
2022-09-04T04:11:43.295Z,101432.35
2022-09-04T04:14:21.797Z,101431.83
2022-09-04T04:17:12.609Z,101433.10
2022-09-04T04:19:50.210Z,101433.15
2022-09-04T04:22:41.120Z,101435.42
2022-09-04T04:25:34.256Z,101436.94
2022-09-04T04:28:28.139Z,101440.53
2022-09-04T04:31:14.744Z,101444.95
2022-09-04T04:34:18.974Z,101444.27
2022-09-04T04:37:20.265Z,101446.15
2022-09-04T04:40:03.349Z,101447.70
2022-09-04T04:42:41.440Z,101453.48
2022-09-04T04:45:51.820Z,101452.02
2022-09-04T04:48:44.665Z,101452.95
2022-09-04T04:51:41.715Z,101454.25
2022-09-04T04:54:32.575Z,101458.55
2022-09-04T04:57:36.526Z,101467.90
2022-09-04T05:00:52.217Z,101464.20
2022-09-04T05:03:54.592Z,101466.06
2022-09-04T05:06:52.894Z,101470.83
2022-09-04T05:09:48.621Z,101473.56
2022-09-04T05:12:54.710Z,101473.20
2022-09-04T05:16:07.488Z,101473.46
2022-09-04T05:19:14.876Z,101479.71
2022-09-04T05:22:10.096Z,101479.30
2022-09-04T05:25:01.227Z,101474.89
2022-09-04T05:27:45.816Z,101480.86
2022-09-04T05:30:28.982Z,101483.28
2022-09-04T05:33:33.366Z,101486.25
2022-09-04T05:37:12.701Z,101482.73
2022-09-04T05:39:55.734Z,101487.65
2022-09-04T05:42:39.570Z,101488.08
2022-09-04T05:45:32.703Z,101490.72
2022-09-04T05:48:26.380Z,101493.69
2022-09-04T05:51:34.922Z,101503.38
2022-09-04T05:54:05.916Z,101503.17
2022-09-04T05:56:53.436Z,101503.77
2022-09-04T06:00:04.821Z,101504.69
2022-09-04T06:02:47.366Z,101504.20
2022-09-04T06:05:45.627Z,101509.80
2022-09-04T06:08:41.608Z,101517.88
2022-09-04T06:11:29.171Z,101514.41
2022-09-04T06:14:25.812Z,101514.95
2022-09-04T06:17:13.111Z,101518.77
2022-09-04T06:20:09.022Z,101523.69
2022-09-04T06:22:55.559Z,101525.66
2022-09-04T06:25:47.200Z,101524.34
2022-09-04T06:28:34.823Z,101529.52
2022-09-04T06:31:09.882Z,101531.63
2022-09-04T06:33:58.302Z,101537.38
2022-09-04T06:36:57.614Z,101542.42
2022-09-04T06:39:32.590Z,101549.95
2022-09-04T06:42:01.845Z,101546.45
2022-09-04T06:45:22.149Z,101545.81
2022-09-04T06:47:58.412Z,101547.02
2022-09-04T06:50:53.715Z,101548.70
2022-09-04T06:53:39.079Z,101549.92
2022-09-04T06:56:18.227Z,101548.55
2022-09-04T06:59:26.426Z,101545.40
2022-09-04T07:02:20.493Z,101547.69
2022-09-04T07:04:55.862Z,101547.95
2022-09-04T07:07:27.518Z,101549.69
2022-09-04T07:10:11.156Z,101548.74
2022-09-04T07:13:18.642Z,101554.22
2022-09-04T07:15:57.311Z,101562.77
2022-09-04T07:18:54.761Z,101567.11
2022-09-04T07:22:05.800Z,101568.91
2022-09-04T07:25:04.870Z,101571.19
2022-09-04T07:28:02.235Z,101571.85
2022-09-04T07:30:54.101Z,101568.98
2022-09-04T07:33:46.620Z,101561.41
2022-09-04T07:36:29.701Z,101568.05
2022-09-04T07:39:15.365Z,101566.89
2022-09-04T07:42:00.651Z,101567.95
2022-09-04T07:45:01.471Z,101565.56
2022-09-04T07:47:50.747Z,101568.38
2022-09-04T07:50:37.238Z,101564.16
2022-09-04T07:53:23.232Z,101569.31
2022-09-04T07:56:11.787Z,101566.55
2022-09-04T07:59:21.950Z,101572.81
2022-09-04T08:02:04.663Z,101571.40
2022-09-04T08:04:53.186Z,101577.77
2022-09-04T08:07:35.618Z,101580.88
2022-09-04T08:10:05.029Z,101585.61
2022-09-04T08:13:11.126Z,101584.48
2022-09-04T08:15:53.955Z,101589.61
2022-09-04T08:18:37.961Z,101585.98
2022-09-04T08:21:27.981Z,101589.98
2022-09-04T08:24:11.992Z,101591.00
2022-09-04T08:27:27.778Z,101588.52
2022-09-04T08:30:14.505Z,101587.76
2022-09-04T08:33:11.264Z,101590.77
2022-09-04T08:36:18.119Z,101593.20
2022-09-04T08:38:57.136Z,101595.33
2022-09-04T08:41:49.377Z,101592.86
2022-09-04T08:44:21.136Z,101597.04
2022-09-04T08:47:40.232Z,101600.80
2022-09-04T08:50:24.085Z,101607.11
2022-09-04T08:53:29.792Z,101609.31
2022-09-04T08:56:22.330Z,101609.67
2022-09-04T08:59:02.686Z,101609.80
2022-09-04T09:01:53.496Z,101616.98
2022-09-04T09:04:44.702Z,101612.07
2022-09-04T09:07:31.581Z,101610.77
2022-09-04T09:10:37.629Z,101613.29
2022-09-04T09:13:43.126Z,101614.59
2022-09-04T09:16:20.450Z,101610.65
2022-09-04T09:19:16.420Z,101606.90
2022-09-04T09:22:03.612Z,101607.63
2022-09-04T09:25:07.834Z,101612.33
2022-09-04T09:28:00.744Z,101617.38
2022-09-04T09:30:47.471Z,101618.87
2022-09-04T09:33:37.488Z,101620.73
2022-09-04T09:36:40.915Z,101620.31
2022-09-04T09:39:10.414Z,101617.16
2022-09-04T09:42:06.600Z,101616.02
2022-09-04T09:44:54.935Z,101613.23
2022-09-04T09:47:51.025Z,101613.30
2022-09-04T09:50:28.595Z,101615.67
2022-09-04T09:53:22.217Z,101613.37
2022-09-04T09:55:57.767Z,101614.98
2022-09-04T09:59:15.446Z,101616.03
2022-09-04T10:02:21.503Z,101618.61
2022-09-04T10:05:19.100Z,101616.77
2022-09-04T10:07:50.781Z,101615.22
2022-09-04T10:10:49.840Z,101611.00
2022-09-04T10:13:37.339Z,101614.06
2022-09-04T10:16:32.496Z,101616.48
2022-09-04T10:19:12.083Z,101616.83
2022-09-04T10:22:18.280Z,101606.42
2022-09-04T10:25:07.744Z,101607.38
2022-09-04T10:28:11.980Z,101604.61
2022-09-04T10:31:17.142Z,101599.91
2022-09-04T10:33:45.471Z,101600.06
2022-09-04T10:36:28.050Z,101601.89
2022-09-04T10:39:37.406Z,101596.52
2022-09-04T10:42:39.213Z,101589.32
2022-09-04T10:45:27.901Z,101593.81
2022-09-04T10:48:28.493Z,101592.48
2022-09-04T10:50:57.803Z,101581.75
2022-09-04T10:53:53.577Z,101585.17
2022-09-04T10:56:35.973Z,101591.79
2022-09-04T10:59:31.817Z,101590.02
2022-09-04T11:02:18.570Z,101589.55
2022-09-04T11:05:19.300Z,101577.04
2022-09-04T11:08:29.322Z,101580.50
2022-09-04T11:11:18.275Z,101578.73
2022-09-04T11:14:07.070Z,101578.44
2022-09-04T11:16:51.353Z,101578.99
2022-09-04T11:19:44.672Z,101573.88
2022-09-04T11:22:35.654Z,101575.73
2022-09-04T11:25:25.622Z,101577.92
2022-09-04T11:28:21.032Z,101579.76
2022-09-04T11:31:11.270Z,101578.42
2022-09-04T11:33:42.698Z,101571.06
2022-09-04T11:36:20.000Z,101571.29
2022-09-04T11:39:16.713Z,101575.16
2022-09-04T11:42:21.241Z,101566.84
2022-09-04T11:45:08.551Z,101561.80
2022-09-04T11:47:57.272Z,101558.14
2022-09-04T11:51:02.134Z,101555.15
2022-09-04T11:53:49.202Z,101552.75
2022-09-04T11:56:45.972Z,101561.68
2022-09-04T11:59:23.730Z,101560.87
2022-09-04T12:02:31.709Z,101570.73
2022-09-04T12:05:09.247Z,101572.75
2022-09-04T12:08:03.859Z,101568.77
2022-09-04T12:10:46.467Z,101568.77
2022-09-04T12:13:40.814Z,101570.93
2022-09-04T12:16:33.592Z,101574.14
2022-09-04T12:19:47.582Z,101573.59
2022-09-04T12:22:46.250Z,101576.60
2022-09-04T12:25:38.062Z,101578.45
2022-09-04T12:28:40.603Z,101578.13
2022-09-04T12:31:21.439Z,101580.94
2022-09-04T12:34:21.159Z,101581.13
2022-09-04T12:37:20.212Z,101577.77
2022-09-04T12:39:57.740Z,101577.03
2022-09-04T12:42:36.624Z,101576.42
2022-09-04T12:45:13.670Z,101573.50
2022-09-04T12:48:09.923Z,101581.05
2022-09-04T12:50:48.099Z,101578.38
2022-09-04T12:53:35.215Z,101576.52
2022-09-04T12:56:10.519Z,101578.91
2022-09-04T12:58:44.938Z,101579.04
2022-09-04T13:01:23.176Z,101578.16
2022-09-04T13:04:22.057Z,101577.73
2022-09-04T13:07:24.563Z,101572.17
2022-09-04T13:10:03.013Z,101575.25
2022-09-04T13:12:49.432Z,101570.84
2022-09-04T13:15:38.371Z,101575.73
2022-09-04T13:18:21.541Z,101576.60
2022-09-04T13:21:13.907Z,101578.62
2022-09-04T13:23:51.451Z,101583.09
2022-09-04T13:26:30.513Z,101580.42
2022-09-04T13:29:29.925Z,101580.77
2022-09-04T13:32:23.243Z,101582.84
2022-09-04T13:35:28.288Z,101586.91
2022-09-04T13:37:59.786Z,101589.98
2022-09-04T13:40:47.015Z,101593.13
2022-09-04T13:43:33.427Z,101593.24
2022-09-04T13:46:12.146Z,101590.05
2022-09-04T13:48:47.945Z,101586.10
2022-09-04T13:51:31.167Z,101592.50
2022-09-04T13:54:11.753Z,101592.79
2022-09-04T13:56:51.238Z,101591.54
2022-09-04T13:59:22.142Z,101589.13
2022-09-04T14:01:55.065Z,101593.17
2022-09-04T14:04:36.871Z,101585.44
2022-09-04T14:07:17.652Z,101586.56
2022-09-04T14:09:50.926Z,101585.06
2022-09-04T14:12:35.785Z,101585.22
2022-09-04T14:15:19.727Z,101587.34
2022-09-04T14:17:54.976Z,101592.20
2022-09-04T14:20:29.309Z,101589.63
2022-09-04T14:23:10.245Z,101589.70
2022-09-04T14:26:02.659Z,101591.98
2022-09-04T14:28:44.046Z,101587.38
2022-09-04T14:31:38.425Z,101592.64
2022-09-04T14:34:29.065Z,101591.83
2022-09-04T14:37:08.810Z,101591.69
2022-09-04T14:39:49.333Z,101588.92
2022-09-04T14:42:42.886Z,101585.65
2022-09-04T14:45:24.681Z,101590.10
2022-09-04T14:48:00.178Z,101590.36
2022-09-04T14:50:31.246Z,101587.38
2022-09-04T14:53:08.822Z,101587.95
2022-09-04T14:56:06.289Z,101587.64
2022-09-04T14:58:41.481Z,101592.45
2022-09-04T15:01:22.338Z,101592.98
2022-09-04T15:04:23.210Z,101589.02
2022-09-04T15:07:11.214Z,101592.78
2022-09-04T15:09:48.585Z,101591.90
2022-09-04T15:12:32.803Z,101597.38
2022-09-04T15:15:20.477Z,101599.15
2022-09-04T15:17:57.353Z,101605.70
2022-09-04T15:20:31.121Z,101603.04
2022-09-04T15:23:14.543Z,101604.15
2022-09-04T15:25:59.746Z,101606.25
2022-09-04T15:28:48.656Z,101600.67
2022-09-04T15:31:21.933Z,101603.37
2022-09-04T15:33:59.228Z,101603.70
2022-09-04T15:36:28.061Z,101605.11
2022-09-04T15:39:00.257Z,101610.09
2022-09-04T15:41:50.188Z,101612.55
2022-09-04T15:44:30.118Z,101622.08
2022-09-04T15:47:23.621Z,101624.66
2022-09-04T15:50:04.644Z,101627.14
2022-09-04T15:52:42.416Z,101628.44
2022-09-04T15:55:31.863Z,101628.28
2022-09-04T15:58:11.395Z,101633.44
2022-09-04T16:01:06.601Z,101632.12
2022-09-04T16:03:47.639Z,101633.42
2022-09-04T16:06:32.421Z,101636.15
2022-09-04T16:09:03.841Z,101632.98
2022-09-04T16:11:32.232Z,101630.57
2022-09-04T16:14:08.858Z,101630.98
2022-09-04T16:16:53.462Z,101633.86
2022-09-04T16:19:34.080Z,101633.54
2022-09-04T16:22:40.314Z,101632.61
2022-09-04T16:25:13.022Z,101625.08
2022-09-04T16:27:49.224Z,101626.00
2022-09-04T16:30:47.268Z,101626.58
2022-09-04T16:33:28.031Z,101629.85
2022-09-04T16:36:17.824Z,101628.77
2022-09-04T16:39:05.952Z,101634.77
2022-09-04T16:41:45.140Z,101636.27
2022-09-04T16:44:27.898Z,101639.05
2022-09-04T16:47:17.952Z,101640.81
2022-09-04T16:49:57.968Z,101642.36
2022-09-04T16:52:34.697Z,101639.17
2022-09-04T16:55:11.672Z,101643.04
2022-09-04T16:58:07.636Z,101646.20
2022-09-04T17:01:14.175Z,101649.67
2022-09-04T17:03:43.146Z,101655.69
2022-09-04T17:06:35.473Z,101655.68
2022-09-04T17:09:28.404Z,101649.93
2022-09-04T17:12:07.492Z,101647.09
2022-09-04T17:14:43.624Z,101647.48
2022-09-04T17:17:31.286Z,101651.49
2022-09-04T17:20:20.776Z,101664.33
2022-09-04T17:27:28.049Z,101669.34
2022-09-04T17:29:04.063Z,101674.53
2022-09-04T17:29:37.206Z,101682.13
2022-09-04T17:39:52.888Z,101680.95
2022-09-04T17:40:33.905Z,101688.42
2022-09-04T17:41:33.310Z,101691.55
2022-09-04T17:42:20.382Z,101698.50
2022-09-04T17:45:02.458Z,101703.80
2022-09-04T17:47:33.351Z,101706.17
2022-09-04T17:50:02.650Z,101708.83
2022-09-04T17:52:34.352Z,101711.29
2022-09-04T17:55:13.833Z,101713.48
2022-09-04T17:57:53.580Z,101716.04
2022-09-04T18:00:34.729Z,101723.23
2022-09-04T18:03:16.993Z,101724.00
2022-09-04T18:05:53.570Z,101728.23
2022-09-04T18:08:33.046Z,101725.14
2022-09-04T18:11:20.145Z,101729.66
2022-09-04T18:14:02.463Z,101729.86
2022-09-04T18:16:37.088Z,101731.05
2022-09-04T18:19:17.375Z,101736.73
2022-09-04T18:22:25.557Z,101742.67
2022-09-04T18:24:59.790Z,101750.49
2022-09-04T18:28:11.600Z,101754.27
2022-09-04T18:37:09.579Z,101757.98
2022-09-04T18:37:27.101Z,101762.46
2022-09-04T18:37:49.147Z,101765.05
2022-09-04T18:44:25.875Z,101775.30
2022-09-04T18:50:23.333Z,101782.64
2022-09-04T18:50:25.800Z,101774.73
2022-09-04T18:50:38.687Z,101778.95
2022-09-04T18:52:23.196Z,101784.39
2022-09-04T18:55:02.657Z,101783.61
2022-09-04T18:57:32.711Z,101784.88
2022-09-04T19:00:10.626Z,101787.14
2022-09-04T19:02:54.040Z,101786.78
2022-09-04T19:05:44.952Z,101790.02
2022-09-04T19:08:24.009Z,101793.77
2022-09-04T19:11:03.580Z,101791.95
2022-09-04T19:14:09.868Z,101792.70
2022-09-04T19:16:57.826Z,101794.80
2022-09-04T19:19:58.868Z,101794.02
2022-09-04T19:22:56.623Z,101798.24
2022-09-04T19:25:41.030Z,101799.80
2022-09-04T19:28:16.530Z,101802.99
2022-09-04T19:30:55.411Z,101806.95
2022-09-04T19:33:45.292Z,101806.91
2022-09-04T19:36:13.781Z,101808.31
2022-09-04T19:45:56.650Z,101809.68
2022-09-04T19:46:07.887Z,101814.15
2022-09-04T19:46:15.289Z,101814.67
2022-09-04T19:48:19.244Z,101817.23
2022-09-04T19:53:23.367Z,101819.35
2022-09-04T19:54:12.189Z,101821.35
2022-09-04T19:57:32.008Z,101820.15
2022-09-04T20:00:31.143Z,101827.63
2022-09-04T20:03:08.132Z,101830.55
2022-09-04T20:05:40.234Z,101834.84
2022-09-04T20:08:14.822Z,101831.93
2022-09-04T20:11:01.831Z,101831.83
2022-09-04T20:13:35.424Z,101831.72
2022-09-04T20:16:25.247Z,101832.59
2022-09-04T20:19:02.842Z,101832.92
2022-09-04T20:21:49.423Z,101834.98
2022-09-04T20:24:23.330Z,101846.16
2022-09-04T20:27:00.437Z,101852.73
2022-09-04T20:29:43.045Z,101852.27
2022-09-04T20:32:11.706Z,101853.63
2022-09-04T20:35:13.261Z,101850.08
2022-09-04T20:37:48.950Z,101849.84
2022-09-04T20:40:36.668Z,101844.92
2022-09-04T20:43:27.152Z,101851.63
2022-09-04T20:52:42.317Z,101855.34
2022-09-04T20:52:57.196Z,101853.05
2022-09-04T20:53:05.491Z,101855.54
2022-09-04T20:55:59.089Z,101856.40
2022-09-04T21:03:06.583Z,101863.69
2022-09-04T21:03:17.137Z,101870.35
2022-09-04T21:04:43.112Z,101873.95
2022-09-04T21:07:27.294Z,101873.08
2022-09-04T21:10:10.215Z,101872.64
2022-09-04T21:13:14.347Z,101872.95
2022-09-04T21:16:05.460Z,101869.96
2022-09-04T21:18:40.199Z,101874.45
2022-09-04T21:21:37.615Z,101875.16
2022-09-04T21:24:15.261Z,101880.17
2022-09-04T21:26:52.555Z,101881.55
2022-09-04T21:29:30.135Z,101888.91
2022-09-04T21:32:26.275Z,101891.31
2022-09-04T21:35:18.925Z,101895.19
2022-09-04T21:38:15.056Z,101894.29
2022-09-04T21:40:51.367Z,101896.75
2022-09-04T21:43:45.715Z,101900.41
2022-09-04T21:46:48.596Z,101903.36
2022-09-04T21:49:26.302Z,101906.77
2022-09-04T21:52:10.346Z,101904.73
2022-09-04T21:57:49.083Z,101910.97
2022-09-04T22:02:28.327Z,101915.38
2022-09-04T22:02:38.113Z,101914.64
2022-09-04T22:04:44.978Z,101915.35
2022-09-04T22:12:13.063Z,101918.55
2022-09-04T22:13:32.170Z,101917.90
2022-09-04T22:13:54.694Z,101920.44
2022-09-04T22:17:03.691Z,101924.08
2022-09-04T22:19:38.009Z,101919.39
2022-09-04T22:22:44.168Z,101921.70
2022-09-04T22:25:28.521Z,101921.48
2022-09-04T22:28:41.477Z,101921.48
2022-09-04T22:31:45.210Z,101920.05
2022-09-04T22:34:53.742Z,101922.87
2022-09-04T22:37:35.334Z,101920.44
2022-09-04T22:40:16.156Z,101916.94
2022-09-04T22:42:56.864Z,101913.24
2022-09-04T22:45:41.139Z,101916.84
2022-09-04T22:48:31.817Z,101917.40
2022-09-04T22:51:16.501Z,101920.70
2022-09-04T22:53:56.849Z,101921.61
2022-09-04T22:57:03.107Z,101922.51
2022-09-04T23:00:10.817Z,101925.11
2022-09-04T23:03:33.306Z,101923.46
2022-09-04T23:07:47.063Z,101926.97
2022-09-04T23:13:52.626Z,101927.55
2022-09-04T23:13:54.382Z,101928.33
2022-09-04T23:15:32.637Z,101927.36
2022-09-04T23:20:46.812Z,101929.42
2022-09-04T23:26:33.725Z,101931.30
2022-09-04T23:26:45.336Z,101931.38
2022-09-04T23:27:52.375Z,101931.20
2022-09-04T23:30:25.646Z,101932.25
2022-09-04T23:32:59.488Z,101935.39
2022-09-04T23:36:14.862Z,101938.34
2022-09-04T23:39:38.173Z,101942.50
2022-09-04T23:42:59.247Z,101947.56
2022-09-04T23:46:08.954Z,101952.77
2022-09-04T23:49:39.737Z,101949.39
2022-09-04T23:52:53.071Z,101950.84
2022-09-04T23:56:07.434Z,101952.38
2022-09-04T23:59:32.127Z,101950.83
